Terminal Aerodrome Forecast
Issued by NWS

Home | Current Version | Previous Version | Text Only | Print | Product List | Glossary On
Versions: 1 2 3 4 5 6 7 8 9 10 11 12 13 14 15 16 17 18 19
000
FTUS43 KAPX 201700
TAFPLN
TAF
KPLN 201720Z 2018/2118 22012G23KT P6SM SCT030 BKN120
     FM202100 24012G19KT P6SM OVC025
     FM210000 26004KT P6SM SHRA OVC022
     FM210500 32004KT 4SM BR OVC012
     FM211400 36010G16KT P6SM BKN025=

USA.gov is the U.S. government's official web portal to all federal, state and local government web resources and services.